createdAt,value
2019-02-25T00:01:10.950Z,35.79
2019-02-25T00:03:39.645Z,36.20
2019-02-25T00:06:07.923Z,36.26
2019-02-25T00:09:07.357Z,37.21
2019-02-25T00:11:35.655Z,36.51
2019-02-25T00:14:03.978Z,38.45
2019-02-25T00:16:31.904Z,38.47
2019-02-25T00:19:00.042Z,37.39
2019-02-25T00:21:27.935Z,35.51
2019-02-25T00:23:56.183Z,37.72
2019-02-25T00:26:24.466Z,35.55
2019-02-25T00:28:52.332Z,35.12
2019-02-25T00:31:20.921Z,36.37
2019-02-25T00:33:48.702Z,32.17
2019-02-25T00:36:16.317Z,30.31
2019-02-25T00:38:43.873Z,31.56
2019-02-25T00:41:12.523Z,32.54
2019-02-25T00:43:40.434Z,32.12
2019-02-25T00:46:08.883Z,32.71
2019-02-25T00:48:37.461Z,32.96
2019-02-25T00:51:06.096Z,32.92
2019-02-25T00:53:34.222Z,31.61
2019-02-25T00:56:01.804Z,33.20
2019-02-25T00:58:30.083Z,32.57
2019-02-25T01:00:58.379Z,30.58
2019-02-25T01:03:25.965Z,29.64
2019-02-25T01:05:54.288Z,29.61
2019-02-25T01:08:22.195Z,30.35
2019-02-25T01:10:49.720Z,32.13
2019-02-25T01:13:17.367Z,31.49
2019-02-25T01:15:45.909Z,29.13
2019-02-25T01:18:14.512Z,32.42
2019-02-25T01:20:43.188Z,30.98
2019-02-25T01:23:11.589Z,30.15
2019-02-25T01:25:40.275Z,29.43
2019-02-25T01:28:08.545Z,31.65
2019-02-25T01:30:36.419Z,30.72
2019-02-25T01:33:04.680Z,36.67
2019-02-25T01:35:32.480Z,35.56
2019-02-25T01:38:01.115Z,34.43
2019-02-25T01:40:29.345Z,34.73
2019-02-25T01:42:57.931Z,33.45
2019-02-25T01:45:25.808Z,33.68
2019-02-25T01:47:54.086Z,33.22
2019-02-25T01:50:22.257Z,34.32
2019-02-25T01:52:50.855Z,34.29
2019-02-25T01:55:19.652Z,33.42
2019-02-25T01:57:47.871Z,34.33
2019-02-25T02:00:16.309Z,34.53
2019-02-25T02:02:44.533Z,35.12
2019-02-25T02:05:12.675Z,36.00
2019-02-25T02:07:40.974Z,35.29
2019-02-25T02:10:10.479Z,35.48
2019-02-25T02:12:39.058Z,35.56
2019-02-25T02:15:09.794Z,37.06
2019-02-25T02:17:37.668Z,38.66
2019-02-25T02:20:06.594Z,36.50
2019-02-25T02:22:35.149Z,36.79
2019-02-25T02:25:03.127Z,36.87
2019-02-25T02:27:30.913Z,36.62
2019-02-25T02:29:58.727Z,36.27
2019-02-25T02:32:27.289Z,37.99
2019-02-25T02:34:55.891Z,37.55
2019-02-25T02:37:23.708Z,36.01
2019-02-25T02:39:51.632Z,36.98
2019-02-25T02:42:39.831Z,35.45
2019-02-25T02:45:30.255Z,37.50
2019-02-25T02:48:36.917Z,38.67
2019-02-25T02:51:24.174Z,41.29
2019-02-25T02:53:52.367Z,42.61
2019-02-25T02:56:20.666Z,43.20
2019-02-25T02:58:49.251Z,43.95
2019-02-25T03:01:17.524Z,44.04
2019-02-25T03:03:45.394Z,43.64
2019-02-25T03:06:14.095Z,44.41
2019-02-25T03:08:42.770Z,42.96
2019-02-25T03:11:10.604Z,41.25
2019-02-25T03:13:38.429Z,41.79
2019-02-25T03:16:06.691Z,41.15
2019-02-25T03:18:35.305Z,39.86
2019-02-25T03:21:03.888Z,40.93
2019-02-25T03:23:32.411Z,42.35
2019-02-25T03:26:01.066Z,38.69
2019-02-25T03:28:29.131Z,41.46
2019-02-25T03:30:57.414Z,38.60
2019-02-25T03:33:24.996Z,37.51
2019-02-25T03:35:53.305Z,38.17
2019-02-25T03:38:21.661Z,35.05
2019-02-25T03:40:49.512Z,33.82
2019-02-25T03:43:17.618Z,32.61
2019-02-25T03:45:46.092Z,32.80
2019-02-25T03:48:14.348Z,31.38
2019-02-25T03:50:42.593Z,29.91
2019-02-25T03:53:10.425Z,32.28
2019-02-25T03:55:38.631Z,30.69
2019-02-25T03:58:06.989Z,32.21
2019-02-25T04:00:35.495Z,33.78
2019-02-25T04:03:03.850Z,34.91
2019-02-25T04:05:32.372Z,34.84
2019-02-25T04:08:00.615Z,35.57
2019-02-25T04:10:29.135Z,35.96
2019-02-25T04:12:57.801Z,38.67
2019-02-25T04:15:31.283Z,39.74
2019-02-25T04:17:59.222Z,40.55
2019-02-25T04:20:27.464Z,41.24
2019-02-25T04:22:55.709Z,40.34
2019-02-25T04:25:24.026Z,42.15
2019-02-25T04:27:52.165Z,40.95
2019-02-25T04:30:20.793Z,40.55
2019-02-25T04:32:48.986Z,42.48
2019-02-25T04:35:17.359Z,42.68
2019-02-25T04:37:45.652Z,42.04
2019-02-25T04:40:13.927Z,41.66
2019-02-25T04:42:42.247Z,41.17
2019-02-25T04:45:12.861Z,41.93
2019-02-25T04:47:41.148Z,42.18
2019-02-25T04:50:09.827Z,41.26
2019-02-25T04:52:37.754Z,41.76
2019-02-25T04:55:05.758Z,42.63
2019-02-25T04:57:33.645Z,43.31
2019-02-25T05:00:01.816Z,42.67
2019-02-25T05:02:30.346Z,43.35
2019-02-25T05:04:58.265Z,43.25
2019-02-25T05:07:26.144Z,42.92
2019-02-25T05:09:54.737Z,43.27
2019-02-25T05:12:22.884Z,43.73
2019-02-25T05:14:51.085Z,43.51
2019-02-25T05:17:19.384Z,42.85
2019-02-25T05:19:47.998Z,42.60
2019-02-25T05:22:16.754Z,43.07
2019-02-25T05:24:45.057Z,43.62
2019-02-25T05:27:13.266Z,43.55
2019-02-25T05:29:41.911Z,44.22
2019-02-25T05:32:10.171Z,44.14
2019-02-25T05:34:38.393Z,44.60
2019-02-25T05:37:06.956Z,45.28
2019-02-25T05:39:35.561Z,44.90
2019-02-25T05:42:03.826Z,45.36
2019-02-25T05:44:32.322Z,46.13
2019-02-25T05:47:00.915Z,45.56
2019-02-25T05:49:29.090Z,44.68
2019-02-25T05:51:57.636Z,44.23
2019-02-25T05:54:25.450Z,43.55
2019-02-25T05:56:53.691Z,44.45
2019-02-25T05:59:21.597Z,44.31
2019-02-25T06:01:49.366Z,44.99
2019-02-25T06:04:17.653Z,46.44
2019-02-25T06:06:46.239Z,46.03
2019-02-25T06:09:14.126Z,45.75
2019-02-25T06:11:42.409Z,45.06
2019-02-25T06:14:10.614Z,45.05
2019-02-25T06:16:38.455Z,47.06
2019-02-25T06:19:07.034Z,47.67
2019-02-25T06:21:35.735Z,48.09
2019-02-25T06:24:04.317Z,47.68
2019-02-25T06:26:32.191Z,48.66
2019-02-25T06:29:00.740Z,47.59
2019-02-25T06:31:29.259Z,47.62
2019-02-25T06:33:57.550Z,48.49
2019-02-25T06:36:25.841Z,47.64
2019-02-25T06:38:54.496Z,47.67
2019-02-25T06:41:22.715Z,47.84
2019-02-25T06:43:51.290Z,46.90
2019-02-25T06:46:19.973Z,47.31
2019-02-25T06:48:47.857Z,48.83
2019-02-25T06:51:16.181Z,48.48
2019-02-25T06:53:44.391Z,46.84
2019-02-25T06:56:12.590Z,46.84
2019-02-25T06:58:41.207Z,48.00
2019-02-25T07:01:09.081Z,46.56
2019-02-25T07:03:37.358Z,44.54
2019-02-25T07:06:24.680Z,43.48
2019-02-25T07:09:12.084Z,44.68
2019-02-25T07:11:59.800Z,42.42
2019-02-25T07:14:47.540Z,43.34
2019-02-25T07:17:34.927Z,42.65
2019-02-25T07:20:09.432Z,45.02
2019-02-25T07:23:16.259Z,44.39
2019-02-25T07:26:03.782Z,45.47
2019-02-25T07:28:51.069Z,46.63
2019-02-25T07:31:38.186Z,47.06
2019-02-25T07:34:25.651Z,47.18
2019-02-25T07:37:13.412Z,47.28
2019-02-25T07:40:00.379Z,47.42
2019-02-25T07:42:38.142Z,46.75
2019-02-25T07:45:28.481Z,46.62
2019-02-25T07:48:36.700Z,45.80
2019-02-25T07:51:24.227Z,45.58
2019-02-25T07:53:59.179Z,46.58
2019-02-25T07:56:35.034Z,47.24
2019-02-25T07:59:22.098Z,46.94
2019-02-25T08:02:09.684Z,47.56
2019-02-25T08:04:57.460Z,46.87
2019-02-25T08:07:44.614Z,47.46
2019-02-25T08:10:32.396Z,47.58
2019-02-25T08:16:21.687Z,48.04
2019-02-25T08:19:09.061Z,48.12
2019-02-25T08:24:49.492Z,48.42
2019-02-25T08:27:49.018Z,48.88
2019-02-25T08:30:48.138Z,48.23
2019-02-25T08:33:36.070Z,49.44
2019-02-25T08:37:02.755Z,50.00
2019-02-25T08:40:11.695Z,50.09
2019-02-25T08:42:57.675Z,50.87
2019-02-25T08:45:45.081Z,51.44
2019-02-25T08:48:17.798Z,51.15
2019-02-25T08:50:46.256Z,51.91
2019-02-25T08:55:54.715Z,52.04
2019-02-25T08:58:22.887Z,51.73
2019-02-25T09:00:51.168Z,52.67
2019-02-25T09:03:19.791Z,52.98
2019-02-25T09:05:48.558Z,52.73
2019-02-25T09:08:16.832Z,52.53
2019-02-25T09:10:44.395Z,52.25
2019-02-25T09:13:13.089Z,51.54
2019-02-25T09:15:41.385Z,51.67
2019-02-25T09:18:49.784Z,51.12
2019-02-25T09:21:18.334Z,51.17
2019-02-25T09:23:46.852Z,51.72
2019-02-25T09:26:15.077Z,50.32
2019-02-25T09:28:43.649Z,48.83
2019-02-25T09:31:12.110Z,48.81
2019-02-25T09:33:40.398Z,47.66
2019-02-25T09:36:08.981Z,46.85
2019-02-25T09:38:37.263Z,45.26
2019-02-25T09:41:05.542Z,45.24
2019-02-25T09:43:34.127Z,43.40
2019-02-25T09:46:02.671Z,43.64
2019-02-25T09:48:30.949Z,42.21
2019-02-25T09:50:59.631Z,41.25
2019-02-25T09:56:29.816Z,39.42
2019-02-25T09:58:57.686Z,38.60
2019-02-25T10:01:25.923Z,38.85
2019-02-25T10:03:54.246Z,37.28
2019-02-25T10:06:22.131Z,37.65
2019-02-25T10:08:50.776Z,37.01
2019-02-25T10:11:19.030Z,36.29
2019-02-25T10:13:47.697Z,35.76
2019-02-25T10:16:16.076Z,35.45
2019-02-25T10:18:44.370Z,35.34
2019-02-25T10:21:12.950Z,36.22
2019-02-25T10:23:40.617Z,35.76
2019-02-25T10:26:09.042Z,36.09
2019-02-25T10:28:36.876Z,36.23
2019-02-25T10:31:04.455Z,34.36
2019-02-25T10:33:32.665Z,34.79
2019-02-25T10:36:00.922Z,33.68
2019-02-25T10:38:29.589Z,33.40
2019-02-25T10:40:59.363Z,33.99
2019-02-25T10:43:36.525Z,33.45
2019-02-25T10:46:51.552Z,32.78
2019-02-25T10:49:20.068Z,32.26
2019-02-25T10:51:48.418Z,31.71
2019-02-25T10:54:17.075Z,32.30
2019-02-25T10:57:14.491Z,33.06
2019-02-25T10:59:42.772Z,32.71
2019-02-25T11:02:13.172Z,32.89
2019-02-25T11:04:41.842Z,33.26
2019-02-25T11:07:10.342Z,32.73
2019-02-25T11:09:57.850Z,32.87
2019-02-25T11:12:27.819Z,32.83
2019-02-25T11:14:56.451Z,32.47
2019-02-25T11:17:24.648Z,31.58
2019-02-25T11:19:54.973Z,31.66
2019-02-25T11:22:28.882Z,32.11
2019-02-25T11:24:57.732Z,33.35
2019-02-25T11:27:35.353Z,32.99
2019-02-25T11:30:16.588Z,33.12
2019-02-25T11:36:05.536Z,34.83
2019-02-25T11:38:37.087Z,35.56
2019-02-25T11:53:15.200Z,38.13
2019-02-25T11:56:23.523Z,38.57
2019-02-25T12:01:52.355Z,37.85
2019-02-25T12:05:00.556Z,38.15
2019-02-25T12:07:28.826Z,38.64
2019-02-25T12:10:37.462Z,37.60
2019-02-25T12:16:07.184Z,37.24
2019-02-25T12:21:44.528Z,37.64
2019-02-25T12:24:52.821Z,38.24
2019-02-25T12:33:35.369Z,38.84
2019-02-25T12:36:03.709Z,38.54
2019-02-25T12:38:32.274Z,38.58
2019-02-25T12:41:01.064Z,38.66
2019-02-25T12:47:09.457Z,38.35
2019-02-25T12:49:56.991Z,38.45
2019-02-25T12:55:38.079Z,38.01
2019-02-25T12:58:37.391Z,38.12
2019-02-25T13:01:24.681Z,36.72
2019-02-25T13:04:33.374Z,35.28
2019-02-25T13:07:01.234Z,34.60
2019-02-25T13:09:29.632Z,33.97
2019-02-25T13:11:57.493Z,34.06
2019-02-25T13:14:26.056Z,34.67
2019-02-25T13:16:54.066Z,35.23
2019-02-25T13:19:22.355Z,35.25
2019-02-25T13:25:13.264Z,34.71
2019-02-25T13:27:48.721Z,33.54
2019-02-25T13:30:35.983Z,32.20
2019-02-25T13:33:04.498Z,32.41
2019-02-25T13:35:44.391Z,31.10
2019-02-25T13:38:12.858Z,31.00
2019-02-25T13:40:41.015Z,29.87
2019-02-25T13:43:09.051Z,29.07
2019-02-25T13:45:36.986Z,29.81
2019-02-25T13:48:05.567Z,31.05
2019-02-25T13:50:33.126Z,31.96
2019-02-25T13:56:21.739Z,30.56
2019-02-25T13:59:30.343Z,29.90
2019-02-25T14:02:10.393Z,31.65
2019-02-25T14:07:39.940Z,34.79
2019-02-25T14:10:20.503Z,34.92
2019-02-25T14:12:48.395Z,33.47
2019-02-25T14:18:29.409Z,29.41
2019-02-25T14:21:38.067Z,29.37
2019-02-25T14:27:29.594Z,28.81
2019-02-25T14:30:45.003Z,29.75
2019-02-25T14:33:14.444Z,30.62
2019-02-25T14:35:53.100Z,31.70
2019-02-25T14:38:29.919Z,30.56
2019-02-25T14:41:46.523Z,30.20
2019-02-25T14:47:46.965Z,31.61
2019-02-25T14:50:35.804Z,30.08
2019-02-25T14:53:54.741Z,29.72
2019-02-25T15:02:31.210Z,28.86
2019-02-25T15:08:21.519Z,25.87
2019-02-25T15:10:50.524Z,25.43
2019-02-25T15:13:19.699Z,26.67
2019-02-25T15:16:06.920Z,28.80
2019-02-25T15:19:15.512Z,28.80
2019-02-25T15:32:02.714Z,28.43
2019-02-25T15:37:36.625Z,31.77
2019-02-25T15:40:45.954Z,32.24
2019-02-25T15:43:45.709Z,32.12
2019-02-25T15:49:25.643Z,30.88
2019-02-25T15:58:16.093Z,27.99
2019-02-25T16:03:56.498Z,27.21
2019-02-25T16:06:31.755Z,27.18
2019-02-25T16:12:40.955Z,31.12
2019-02-25T16:15:29.132Z,31.56
2019-02-25T16:18:44.294Z,33.95
2019-02-25T16:21:43.942Z,38.57
2019-02-25T16:30:13.222Z,45.10
2019-02-25T16:33:23.750Z,46.85
2019-02-25T16:36:03.996Z,48.00
2019-02-25T16:42:05.251Z,50.08
2019-02-25T16:44:33.681Z,51.13
2019-02-25T16:50:23.252Z,52.75
2019-02-25T16:53:05.942Z,53.61
2019-02-25T16:58:40.449Z,54.54
2019-02-25T17:04:11.878Z,56.06
2019-02-25T17:10:01.398Z,57.25
2019-02-25T17:12:37.526Z,57.95
2019-02-25T17:18:26.736Z,58.97
2019-02-25T17:20:54.907Z,60.12
2019-02-25T17:23:25.127Z,60.78
2019-02-25T17:26:02.031Z,61.25
2019-02-25T17:28:29.938Z,61.82
2019-02-25T17:30:58.258Z,62.34
2019-02-25T17:33:28.219Z,62.97
2019-02-25T17:38:58.723Z,63.74
2019-02-25T17:41:39.919Z,64.35
2019-02-25T17:47:24.496Z,65.26
2019-02-25T17:52:50.161Z,66.30
2019-02-25T17:55:59.882Z,66.78
2019-02-25T17:58:38.093Z,67.39
2019-02-25T18:01:56.214Z,67.29
2019-02-25T18:04:26.549Z,67.88
2019-02-25T18:06:55.369Z,67.91
2019-02-25T18:09:24.840Z,68.04
2019-02-25T18:11:53.200Z,68.11
2019-02-25T18:14:21.466Z,68.64
2019-02-25T18:16:51.272Z,68.89
2019-02-25T18:19:20.860Z,68.98
2019-02-25T18:21:58.164Z,69.13
2019-02-25T18:24:32.968Z,69.40
2019-02-25T18:27:00.575Z,69.75
2019-02-25T18:29:28.818Z,70.30
2019-02-25T18:32:06.029Z,70.29
2019-02-25T18:34:44.319Z,70.48
2019-02-25T18:37:13.476Z,70.86
2019-02-25T18:39:50.067Z,71.17
2019-02-25T18:42:26.065Z,71.74
2019-02-25T18:44:54.462Z,71.89
2019-02-25T18:47:25.027Z,71.71
2019-02-25T18:49:53.976Z,71.77
2019-02-25T18:52:29.660Z,71.65
2019-02-25T18:55:06.738Z,71.39
2019-02-25T18:58:22.227Z,71.74
2019-02-25T19:04:11.140Z,71.77
2019-02-25T19:06:47.836Z,71.55
2019-02-25T19:09:23.175Z,71.39
2019-02-25T19:11:58.989Z,71.60
2019-02-25T19:14:28.875Z,71.85
2019-02-25T19:17:06.398Z,72.08
2019-02-25T19:20:21.582Z,72.36
2019-02-25T19:23:02.819Z,72.47
2019-02-25T19:28:45.921Z,73.06
2019-02-25T19:31:14.151Z,72.76
2019-02-25T19:33:42.749Z,72.98
2019-02-25T19:36:11.583Z,72.94
2019-02-25T19:38:41.848Z,73.48
2019-02-25T19:41:17.750Z,73.40
2019-02-25T19:43:47.422Z,74.12
2019-02-25T19:46:16.231Z,74.05
2019-02-25T19:48:47.021Z,74.13
2019-02-25T19:51:23.062Z,74.07
2019-02-25T19:53:59.829Z,74.37
2019-02-25T19:56:35.712Z,74.68
2019-02-25T19:59:05.657Z,74.90
2019-02-25T20:01:40.908Z,75.49
2019-02-25T20:04:11.480Z,75.60
2019-02-25T20:10:19.262Z,76.25
2019-02-25T20:16:15.825Z,76.10
2019-02-25T20:18:42.022Z,76.15
2019-02-25T20:21:22.545Z,76.57
2019-02-25T20:23:53.829Z,76.64
2019-02-25T20:26:28.775Z,77.39
2019-02-25T20:31:59.694Z,77.30
2019-02-25T20:34:29.710Z,77.28
2019-02-25T20:36:59.922Z,77.21
2019-02-25T20:40:17.137Z,77.46
2019-02-25T20:42:56.097Z,77.26
2019-02-25T20:45:32.640Z,77.49
2019-02-25T20:48:01.963Z,77.86
2019-02-25T20:51:22.711Z,77.75
2019-02-25T20:54:01.189Z,77.48
2019-02-25T20:56:30.911Z,78.13
2019-02-25T20:59:07.587Z,78.08
2019-02-25T21:02:16.776Z,77.73
2019-02-25T21:08:08.819Z,78.17
2019-02-25T21:10:36.870Z,77.67
2019-02-25T21:13:05.432Z,78.01
2019-02-25T21:15:35.729Z,77.80
2019-02-25T21:18:51.258Z,77.34
2019-02-25T21:21:30.762Z,77.46
2019-02-25T21:24:06.783Z,77.45
2019-02-25T21:30:04.366Z,77.47
2019-02-25T21:32:47.134Z,77.52
2019-02-25T21:35:27.612Z,77.71
2019-02-25T21:38:41.038Z,77.75
2019-02-25T21:41:11.173Z,77.60
2019-02-25T21:43:49.332Z,78.70
2019-02-25T21:52:46.150Z,79.43
2019-02-25T21:55:23.839Z,79.71
2019-02-25T21:58:30.448Z,79.47
2019-02-25T22:01:18.308Z,79.87
2019-02-25T22:03:48.712Z,79.19
2019-02-25T22:06:20.028Z,79.79
2019-02-25T22:12:21.997Z,79.24
2019-02-25T22:15:10.820Z,79.26
2019-02-25T22:17:53.019Z,79.28
2019-02-25T22:21:09.484Z,79.04
2019-02-25T22:23:43.517Z,79.58
2019-02-25T22:26:12.651Z,79.73
2019-02-25T22:32:03.943Z,79.32
2019-02-25T22:35:00.556Z,80.02
2019-02-25T22:37:49.664Z,80.39
2019-02-25T22:40:38.827Z,80.04
2019-02-25T22:43:59.957Z,79.74
2019-02-25T22:46:57.526Z,80.06
2019-02-25T22:49:45.432Z,80.28
2019-02-25T22:52:34.774Z,79.71
2019-02-25T22:55:54.738Z,79.87
2019-02-25T22:58:31.595Z,80.14
2019-02-25T23:07:50.217Z,79.92
2019-02-25T23:10:29.805Z,80.39
2019-02-25T23:12:58.513Z,80.98
2019-02-25T23:15:30.153Z,80.39
2019-02-25T23:18:25.853Z,80.94
2019-02-25T23:21:03.360Z,80.81
2019-02-25T23:24:12.027Z,80.44
2019-02-25T23:30:00.431Z,80.89
2019-02-25T23:33:11.785Z,80.60
2019-02-25T23:35:49.191Z,80.99
2019-02-25T23:38:18.858Z,81.15
2019-02-25T23:40:47.218Z,81.41
2019-02-25T23:43:16.727Z,81.39
2019-02-25T23:45:46.406Z,81.09
2019-02-25T23:48:21.712Z,81.51
2019-02-25T23:50:50.310Z,81.19
2019-02-25T23:53:31.089Z,81.24
2019-02-25T23:56:00.369Z,81.24
2019-02-25T23:58:28.637Z,80.78
